createdAt,value
2023-02-11T00:00:13.303Z,103022.25
2023-02-11T00:05:15.613Z,103026.53
2023-02-11T00:10:23.352Z,103031.63
2023-02-11T00:15:29.636Z,103002.31
2023-02-11T00:20:31.275Z,102989.97
2023-02-11T00:25:40.004Z,102990.09
2023-02-11T00:30:41.906Z,102981.28
2023-02-11T00:35:48.316Z,102988.34
2023-02-11T00:40:51.431Z,102994.44
2023-02-11T00:45:56.127Z,102991.47
2023-02-11T00:50:59.850Z,103000.19
2023-02-11T00:56:06.641Z,102980.53
2023-02-11T01:01:08.494Z,102985.59
2023-02-11T01:06:10.904Z,102991.44
2023-02-11T01:11:18.865Z,102987.63
2023-02-11T01:16:23.650Z,102984.66
2023-02-11T01:21:28.313Z,102972.31
2023-02-11T01:26:34.789Z,102978.50
2023-02-11T01:31:41.411Z,102982.00
2023-02-11T01:36:47.672Z,102973.19
2023-02-11T01:41:52.545Z,102966.28
2023-02-11T01:46:56.757Z,102967.97
2023-02-11T01:52:09.430Z,102964.47
2023-02-11T01:57:22.149Z,102969.66
2023-02-11T02:02:29.805Z,102968.53
2023-02-11T02:07:43.999Z,102958.25
2023-02-11T02:12:50.385Z,102957.19
2023-02-11T02:18:03.017Z,102942.81
2023-02-11T02:23:10.000Z,102926.59
2023-02-11T02:28:20.198Z,102931.69
2023-02-11T02:33:28.057Z,102935.09
2023-02-11T02:38:40.509Z,102930.63
2023-02-11T02:43:50.666Z,102920.75
2023-02-11T02:49:00.690Z,102917.13
2023-02-11T02:54:40.853Z,102915.84
2023-02-11T02:59:54.191Z,102914.91
2023-02-11T03:05:02.097Z,102917.44
2023-02-11T03:10:09.119Z,102906.72
2023-02-11T03:15:16.072Z,102897.66
2023-02-11T03:20:20.283Z,102887.03
2023-02-11T03:25:28.799Z,102886.19
2023-02-11T03:30:34.888Z,102897.75
2023-02-11T03:35:46.134Z,102897.97
2023-02-11T03:40:50.639Z,102902.13
2023-02-11T03:45:57.478Z,102901.91
2023-02-11T03:51:04.737Z,102886.56
2023-02-11T03:56:09.481Z,102880.81
2023-02-11T04:01:14.970Z,102883.75
2023-02-11T04:06:19.137Z,102898.00
2023-02-11T04:11:23.376Z,102902.50
2023-02-11T04:16:31.087Z,102898.84
2023-02-11T04:21:35.055Z,102900.53
2023-02-11T04:26:41.407Z,102889.91
2023-02-11T04:31:45.501Z,102891.72
2023-02-11T04:36:48.265Z,102887.38
2023-02-11T04:41:51.050Z,102882.06
2023-02-11T04:46:59.391Z,102885.66
2023-02-11T04:52:06.191Z,102890.13
2023-02-11T04:57:08.001Z,102870.69
2023-02-11T05:02:11.973Z,102894.50
2023-02-11T05:07:14.337Z,102898.84
2023-02-11T05:12:16.094Z,102898.75
2023-02-11T05:17:22.171Z,102904.94
2023-02-11T05:22:28.746Z,102899.41
2023-02-11T05:27:33.428Z,102892.94
2023-02-11T05:32:42.476Z,102894.22
2023-02-11T05:37:44.646Z,102896.38
2023-02-11T05:42:48.624Z,102894.78
2023-02-11T05:47:55.104Z,102902.03
2023-02-11T05:52:59.103Z,102905.22
2023-02-11T05:58:03.343Z,102890.84
2023-02-11T06:03:05.323Z,102884.13
2023-02-11T06:08:09.266Z,102890.09
2023-02-11T06:13:13.600Z,102882.78
2023-02-11T06:18:15.429Z,102887.03
2023-02-11T06:23:19.452Z,102881.59
2023-02-11T06:28:21.183Z,102888.38
2023-02-11T06:33:27.642Z,102877.72
2023-02-11T06:38:34.221Z,102874.78
2023-02-11T06:43:38.312Z,102896.06
2023-02-11T06:48:40.067Z,102895.72
2023-02-11T06:53:44.445Z,102887.53
2023-02-11T06:58:48.528Z,102889.09
2023-02-11T07:03:51.449Z,102900.59
2023-02-11T07:08:55.762Z,102904.00
2023-02-11T07:14:10.141Z,102913.59
2023-02-11T07:19:14.136Z,102904.75
2023-02-11T07:24:16.190Z,102917.97
2023-02-11T07:29:17.909Z,102926.69
2023-02-11T07:34:22.815Z,102934.72
2023-02-11T07:39:29.518Z,102932.91
2023-02-11T07:44:33.262Z,102930.38
2023-02-11T07:49:34.963Z,102953.47
2023-02-11T07:54:36.924Z,102958.69
2023-02-11T07:59:43.615Z,102961.38
2023-02-11T08:04:47.127Z,102961.88
2023-02-11T08:09:56.720Z,102963.50
2023-02-11T08:14:59.623Z,102966.78
2023-02-11T08:20:04.796Z,102972.59
2023-02-11T08:25:09.548Z,102982.97
2023-02-11T08:30:12.032Z,102997.63
2023-02-11T08:35:15.901Z,103009.78
2023-02-11T08:40:17.874Z,103020.50
2023-02-11T08:45:22.178Z,103030.69
2023-02-11T08:50:27.927Z,103033.47
2023-02-11T08:55:29.727Z,103038.78
2023-02-11T09:00:33.819Z,103057.25
2023-02-11T09:05:53.642Z,103056.16
2023-02-11T09:10:59.466Z,103065.84
2023-02-11T09:16:07.973Z,103067.34
2023-02-11T09:21:13.005Z,103081.31
2023-02-11T09:26:17.946Z,103091.84
2023-02-11T09:31:21.816Z,103101.47
2023-02-11T09:36:30.992Z,103087.88
2023-02-11T09:41:47.661Z,103091.19
2023-02-11T09:46:59.707Z,103111.44
2023-02-11T09:52:30.170Z,103114.13
2023-02-11T09:57:36.559Z,103106.97
2023-02-11T10:02:58.630Z,103096.81
2023-02-11T10:08:15.852Z,103110.31
2023-02-11T10:13:31.974Z,103113.16
2023-02-11T10:18:42.662Z,103122.53
2023-02-11T10:23:49.117Z,103107.88
2023-02-11T10:28:54.559Z,103124.94
2023-02-11T10:34:03.236Z,103142.34
2023-02-11T10:39:18.694Z,103149.34
2023-02-11T10:44:41.326Z,103145.75
2023-02-11T10:49:45.502Z,103143.13
2023-02-11T10:55:03.232Z,103147.19
2023-02-11T11:00:36.130Z,103145.16
2023-02-11T11:05:50.232Z,103159.47
2023-02-11T11:11:05.318Z,103169.03
2023-02-11T11:16:12.204Z,103165.91
2023-02-11T11:21:29.042Z,103154.41
2023-02-11T11:26:46.623Z,103158.78
2023-02-11T11:32:01.314Z,103172.84
2023-02-11T11:37:29.356Z,103182.28
2023-02-11T11:42:36.033Z,103161.78
2023-02-11T11:47:43.534Z,103156.91
2023-02-11T11:53:01.494Z,103152.66
2023-02-11T11:58:06.940Z,103156.31
2023-02-11T12:03:27.570Z,103179.84
2023-02-11T12:09:12.712Z,103192.00
2023-02-11T12:14:35.636Z,103196.91
2023-02-11T12:20:14.406Z,103171.28
2023-02-11T12:25:30.884Z,103190.72
2023-02-11T12:30:45.103Z,103202.00
2023-02-11T12:35:58.941Z,103199.78
2023-02-11T12:41:39.754Z,103209.47
2023-02-11T12:46:51.297Z,103199.22
2023-02-11T12:52:08.973Z,103191.72
2023-02-11T12:57:19.605Z,103188.66
2023-02-11T13:02:31.966Z,103191.78
2023-02-11T13:07:39.636Z,103189.66
2023-02-11T13:13:09.073Z,103179.31
2023-02-11T13:18:32.686Z,103182.50
2023-02-11T13:23:39.920Z,103192.66
2023-02-11T13:29:07.809Z,103198.78
2023-02-11T13:34:46.625Z,103206.03
2023-02-11T13:39:57.027Z,103209.88
2023-02-11T13:44:58.980Z,103207.31
2023-02-11T13:50:06.420Z,103220.66
2023-02-11T13:55:20.528Z,103211.38
2023-02-11T14:00:37.276Z,103201.13
2023-02-11T14:06:26.729Z,103209.13
2023-02-11T14:11:40.914Z,103211.69
2023-02-11T14:17:17.042Z,103218.53
2023-02-11T14:22:31.753Z,103226.88
2023-02-11T14:27:37.501Z,103224.53
2023-02-11T14:32:55.437Z,103222.22
2023-02-11T14:38:05.212Z,103228.72
2023-02-11T14:43:16.268Z,103227.22
2023-02-11T14:48:20.114Z,103235.00
2023-02-11T14:53:26.338Z,103243.22
2023-02-11T14:58:30.153Z,103232.66
2023-02-11T15:03:43.073Z,103237.34
2023-02-11T15:09:05.059Z,103246.53
2023-02-11T15:14:12.025Z,103266.38
2023-02-11T15:19:37.028Z,103263.13
2023-02-11T15:24:40.247Z,103271.25
2023-02-11T15:29:50.647Z,103275.72
2023-02-11T15:34:56.773Z,103290.13
2023-02-11T15:40:14.861Z,103293.84
2023-02-11T15:45:17.570Z,103312.41
2023-02-11T15:50:27.532Z,103307.94
2023-02-11T15:55:29.915Z,103317.19
2023-02-11T16:00:40.024Z,103321.13
2023-02-11T16:05:42.775Z,103319.53
2023-02-11T16:10:58.716Z,103315.44
2023-02-11T16:16:07.431Z,103324.59
2023-02-11T16:21:18.934Z,103320.34
2023-02-11T16:26:29.354Z,103318.94
2023-02-11T16:31:37.205Z,103317.53
2023-02-11T16:36:41.490Z,103319.53
2023-02-11T16:41:43.550Z,103324.34
2023-02-11T16:46:50.836Z,103329.97
2023-02-11T16:51:56.609Z,103336.34
2023-02-11T16:57:00.745Z,103342.72
2023-02-11T17:02:03.925Z,103353.47
2023-02-11T17:07:07.869Z,103362.63
2023-02-11T17:12:12.869Z,103359.19
2023-02-11T17:17:17.502Z,103344.16
2023-02-11T17:22:23.413Z,103351.28
2023-02-11T17:27:25.138Z,103369.09
2023-02-11T17:32:29.660Z,103380.59
2023-02-11T17:37:34.774Z,103390.38
2023-02-11T17:42:40.883Z,103405.41
2023-02-11T17:47:52.265Z,103404.56
2023-02-11T17:52:54.112Z,103403.63
2023-02-11T17:57:58.232Z,103408.19
2023-02-11T18:03:03.823Z,103423.31
2023-02-11T18:08:07.308Z,103420.66
2023-02-11T18:13:08.995Z,103422.34
2023-02-11T18:18:11.235Z,103429.47
2023-02-11T18:23:15.435Z,103440.13
2023-02-11T18:28:17.173Z,103456.97
2023-02-11T18:33:22.868Z,103445.63
2023-02-11T18:38:27.390Z,103451.94
2023-02-11T18:43:33.708Z,103461.59
2023-02-11T18:48:37.873Z,103464.47
2023-02-11T18:53:43.104Z,103462.66
2023-02-11T18:58:51.380Z,103466.28
2023-02-11T19:03:54.328Z,103474.28
2023-02-11T19:08:59.968Z,103480.53
2023-02-11T19:14:10.081Z,103490.25
2023-02-11T19:19:15.374Z,103485.00
2023-02-11T19:24:19.986Z,103503.66
2023-02-11T19:29:22.033Z,103490.34
2023-02-11T19:34:27.805Z,103502.03
2023-02-11T19:39:32.931Z,103501.97
2023-02-11T19:44:34.791Z,103495.75
2023-02-11T19:49:41.236Z,103499.38
2023-02-11T19:54:46.293Z,103497.66
2023-02-11T19:59:50.927Z,103493.50
2023-02-11T20:04:52.653Z,103502.41
2023-02-11T20:09:57.533Z,103503.53
2023-02-11T20:15:02.426Z,103508.88
2023-02-11T20:20:05.468Z,103517.81
2023-02-11T20:25:12.429Z,103508.09
2023-02-11T20:30:14.842Z,103515.25
2023-02-11T20:35:18.830Z,103516.09
2023-02-11T20:40:20.666Z,103530.38
2023-02-11T20:45:24.441Z,103542.91
2023-02-11T20:50:28.516Z,103547.25
2023-02-11T20:55:33.712Z,103561.47
2023-02-11T21:00:38.726Z,103559.63
2023-02-11T21:05:43.378Z,103572.00
2023-02-11T21:10:50.658Z,103580.94
2023-02-11T21:15:55.946Z,103578.28
2023-02-11T21:20:57.990Z,103588.81
2023-02-11T21:25:59.724Z,103574.84
2023-02-11T21:31:04.252Z,103581.78
2023-02-11T21:36:10.612Z,103589.78
2023-02-11T21:41:15.685Z,103595.19
2023-02-11T21:46:19.046Z,103604.13
2023-02-11T21:51:28.770Z,103604.41
2023-02-11T21:56:33.307Z,103611.50
2023-02-11T22:01:35.860Z,103620.53
2023-02-11T22:06:41.230Z,103617.03
2023-02-11T22:11:49.245Z,103624.06
2023-02-11T22:16:55.304Z,103620.66
2023-02-11T22:21:57.110Z,103637.28
2023-02-11T22:26:58.787Z,103625.69
2023-02-11T22:32:02.849Z,103633.69
2023-02-11T22:37:07.607Z,103635.31
2023-02-11T22:42:09.514Z,103644.13
2023-02-11T22:47:13.667Z,103645.88
2023-02-11T22:52:16.794Z,103652.03
2023-02-11T22:57:21.004Z,103651.97
2023-02-11T23:02:28.587Z,103651.19
2023-02-11T23:07:38.353Z,103667.03
2023-02-11T23:12:44.524Z,103671.44
2023-02-11T23:17:46.185Z,103657.16
2023-02-11T23:22:50.134Z,103683.78
2023-02-11T23:27:56.532Z,103687.31
2023-02-11T23:33:00.549Z,103690.84
2023-02-11T23:38:05.010Z,103691.78
2023-02-11T23:43:09.204Z,103695.56
2023-02-11T23:48:14.205Z,103706.41
2023-02-11T23:53:18.537Z,103715.31
2023-02-11T23:58:26.333Z,103711.91
